sensor_id;sensor_type;location;lat;lon;timestamp;temperature;humidity
1880;DHT22;49285;49.002;8.390;2022-10-26T00:02:22;17.20;99.90
1880;DHT22;49285;49.002;8.390;2022-10-26T00:04:47;17.20;99.90
1880;DHT22;49285;49.002;8.390;2022-10-26T00:07:13;17.20;99.90
1880;DHT22;49285;49.002;8.390;2022-10-26T00:09:38;17.20;99.90
1880;DHT22;49285;49.002;8.390;2022-10-26T00:12:04;17.20;99.90
1880;DHT22;49285;49.002;8.390;2022-10-26T00:14:29;17.10;99.90
1880;DHT22;49285;49.002;8.390;2022-10-26T00:16:55;17.10;99.90
1880;DHT22;49285;49.002;8.390;2022-10-26T00:19:21;17.10;99.90
1880;DHT22;49285;49.002;8.390;2022-10-26T00:21:46;17.00;99.90
1880;DHT22;49285;49.002;8.390;2022-10-26T00:24:12;17.00;99.90
1880;DHT22;49285;49.002;8.390;2022-10-26T00:26:38;17.00;99.90
1880;DHT22;49285;49.002;8.390;2022-10-26T00:29:04;16.90;99.90
1880;DHT22;49285;49.002;8.390;2022-10-26T00:31:30;16.90;99.90
1880;DHT22;49285;49.002;8.390;2022-10-26T00:33:56;17.00;99.90
1880;DHT22;49285;49.002;8.390;2022-10-26T00:36:22;17.00;99.90
1880;DHT22;49285;49.002;8.390;2022-10-26T00:38:53;17.00;99.90
1880;DHT22;49285;49.002;8.390;2022-10-26T00:41:28;17.00;99.90
1880;DHT22;49285;49.002;8.390;2022-10-26T00:43:55;17.00;99.90
1880;DHT22;49285;49.002;8.390;2022-10-26T00:46:23;17.00;99.90
1880;DHT22;49285;49.002;8.390;2022-10-26T00:48:58;17.00;99.90
1880;DHT22;49285;49.002;8.390;2022-10-26T00:51:26;16.90;99.90
1880;DHT22;49285;49.002;8.390;2022-10-26T00:53:57;16.90;99.90
1880;DHT22;49285;49.002;8.390;2022-10-26T00:56:23;16.80;99.90
1880;DHT22;49285;49.002;8.390;2022-10-26T00:58:49;16.80;99.90
1880;DHT22;49285;49.002;8.390;2022-10-26T01:01:15;16.80;99.90
1880;DHT22;49285;49.002;8.390;2022-10-26T01:03:42;16.80;99.90
1880;DHT22;49285;49.002;8.390;2022-10-26T01:06:08;16.80;99.90
1880;DHT22;49285;49.002;8.390;2022-10-26T01:08:35;16.80;99.90
1880;DHT22;49285;49.002;8.390;2022-10-26T01:11:02;16.80;99.90
1880;DHT22;49285;49.002;8.390;2022-10-26T01:13:31;16.80;99.90
1880;DHT22;49285;49.002;8.390;2022-10-26T01:16:14;16.80;99.90
1880;DHT22;49285;49.002;8.390;2022-10-26T01:21:51;16.80;99.90
1880;DHT22;49285;49.002;8.390;2022-10-26T01:24:26;16.70;99.90
1880;DHT22;49285;49.002;8.390;2022-10-26T01:30:31;16.70;99.90
1880;DHT22;49285;49.002;8.390;2022-10-26T01:39:14;16.70;99.90
1880;DHT22;49285;49.002;8.390;2022-10-26T01:41:46;16.70;99.90
1880;DHT22;49285;49.002;8.390;2022-10-26T01:44:19;16.70;99.90
1880;DHT22;49285;49.002;8.390;2022-10-26T01:46:48;16.70;99.90
1880;DHT22;49285;49.002;8.390;2022-10-26T01:49:17;16.70;99.90
1880;DHT22;49285;49.002;8.390;2022-10-26T01:51:46;16.70;99.90
1880;DHT22;49285;49.002;8.390;2022-10-26T01:54:12;16.70;99.90
1880;DHT22;49285;49.002;8.390;2022-10-26T01:56:41;16.70;99.90
1880;DHT22;49285;49.002;8.390;2022-10-26T02:04:59;16.70;99.90
1880;DHT22;49285;49.002;8.390;2022-10-26T02:07:50;16.70;99.90
1880;DHT22;49285;49.002;8.390;2022-10-26T02:10:42;16.70;99.90
1880;DHT22;49285;49.002;8.390;2022-10-26T02:13:45;16.70;99.90
1880;DHT22;49285;49.002;8.390;2022-10-26T02:19:01;16.70;99.90
1880;DHT22;49285;49.002;8.390;2022-10-26T02:21:36;16.60;99.90
1880;DHT22;49285;49.002;8.390;2022-10-26T02:24:03;16.60;99.90
1880;DHT22;49285;49.002;8.390;2022-10-26T02:26:32;16.60;99.90
1880;DHT22;49285;49.002;8.390;2022-10-26T02:29:07;16.50;99.90
1880;DHT22;49285;49.002;8.390;2022-10-26T02:31:35;16.50;99.90
1880;DHT22;49285;49.002;8.390;2022-10-26T02:34:06;16.50;99.90
1880;DHT22;49285;49.002;8.390;2022-10-26T02:36:35;16.50;99.90
1880;DHT22;49285;49.002;8.390;2022-10-26T02:39:04;16.60;99.90
1880;DHT22;49285;49.002;8.390;2022-10-26T02:41:31;16.60;99.90
1880;DHT22;49285;49.002;8.390;2022-10-26T02:46:35;16.40;99.90
1880;DHT22;49285;49.002;8.390;2022-10-26T02:49:01;16.50;99.90
1880;DHT22;49285;49.002;8.390;2022-10-26T02:54:12;16.40;99.90
1880;DHT22;49285;49.002;8.390;2022-10-26T02:56:51;16.40;99.90
1880;DHT22;49285;49.002;8.390;2022-10-26T02:59:20;16.30;99.90
1880;DHT22;49285;49.002;8.390;2022-10-26T03:01:46;16.30;99.90
1880;DHT22;49285;49.002;8.390;2022-10-26T03:04:12;16.20;99.90
1880;DHT22;49285;49.002;8.390;2022-10-26T03:06:38;16.20;99.90
1880;DHT22;49285;49.002;8.390;2022-10-26T03:09:04;16.10;99.90
1880;DHT22;49285;49.002;8.390;2022-10-26T03:11:29;16.00;99.90
1880;DHT22;49285;49.002;8.390;2022-10-26T03:13:55;16.00;99.90
1880;DHT22;49285;49.002;8.390;2022-10-26T03:16:20;15.90;99.90
1880;DHT22;49285;49.002;8.390;2022-10-26T03:18:46;16.00;99.90
1880;DHT22;49285;49.002;8.390;2022-10-26T03:21:11;16.00;99.90
1880;DHT22;49285;49.002;8.390;2022-10-26T03:23:37;15.90;99.90
1880;DHT22;49285;49.002;8.390;2022-10-26T03:26:02;15.90;99.90
1880;DHT22;49285;49.002;8.390;2022-10-26T03:28:28;15.90;99.90
1880;DHT22;49285;49.002;8.390;2022-10-26T03:30:54;15.90;99.90
1880;DHT22;49285;49.002;8.390;2022-10-26T03:33:19;15.90;99.90
1880;DHT22;49285;49.002;8.390;2022-10-26T03:35:45;15.80;99.90
1880;DHT22;49285;49.002;8.390;2022-10-26T03:38:10;15.70;99.90
1880;DHT22;49285;49.002;8.390;2022-10-26T03:40:36;15.70;99.90
1880;DHT22;49285;49.002;8.390;2022-10-26T03:43:02;15.80;99.90
1880;DHT22;49285;49.002;8.390;2022-10-26T03:45:28;15.80;99.90
1880;DHT22;49285;49.002;8.390;2022-10-26T03:47:53;15.80;99.90
1880;DHT22;49285;49.002;8.390;2022-10-26T03:50:20;15.80;99.90
1880;DHT22;49285;49.002;8.390;2022-10-26T03:52:47;15.80;99.90
1880;DHT22;49285;49.002;8.390;2022-10-26T03:55:13;15.90;99.90
1880;DHT22;49285;49.002;8.390;2022-10-26T03:57:43;15.80;99.90
1880;DHT22;49285;49.002;8.390;2022-10-26T04:00:11;15.80;99.90
1880;DHT22;49285;49.002;8.390;2022-10-26T04:02:37;15.70;99.90
1880;DHT22;49285;49.002;8.390;2022-10-26T04:05:02;15.80;99.90
1880;DHT22;49285;49.002;8.390;2022-10-26T04:07:28;15.80;99.90
1880;DHT22;49285;49.002;8.390;2022-10-26T04:09:54;15.80;99.90
1880;DHT22;49285;49.002;8.390;2022-10-26T04:12:19;15.80;99.90
1880;DHT22;49285;49.002;8.390;2022-10-26T04:14:45;15.80;99.90
1880;DHT22;49285;49.002;8.390;2022-10-26T04:17:10;15.80;99.90
1880;DHT22;49285;49.002;8.390;2022-10-26T04:19:36;15.70;99.90
1880;DHT22;49285;49.002;8.390;2022-10-26T04:22:01;15.80;99.90
1880;DHT22;49285;49.002;8.390;2022-10-26T04:24:27;15.80;99.90
1880;DHT22;49285;49.002;8.390;2022-10-26T04:26:52;15.80;99.90
1880;DHT22;49285;49.002;8.390;2022-10-26T04:29:18;15.70;99.90
1880;DHT22;49285;49.002;8.390;2022-10-26T04:31:43;15.70;99.90
1880;DHT22;49285;49.002;8.390;2022-10-26T04:34:09;15.70;99.90
1880;DHT22;49285;49.002;8.390;2022-10-26T04:36:34;15.80;99.90
1880;DHT22;49285;49.002;8.390;2022-10-26T04:39:00;15.80;99.90
1880;DHT22;49285;49.002;8.390;2022-10-26T04:41:26;15.80;99.90
1880;DHT22;49285;49.002;8.390;2022-10-26T04:43:51;15.90;99.90
1880;DHT22;49285;49.002;8.390;2022-10-26T04:46:17;15.90;99.90
1880;DHT22;49285;49.002;8.390;2022-10-26T04:48:42;15.90;99.90
1880;DHT22;49285;49.002;8.390;2022-10-26T04:51:08;15.90;99.90
1880;DHT22;49285;49.002;8.390;2022-10-26T04:53:33;15.90;99.90
1880;DHT22;49285;49.002;8.390;2022-10-26T04:56:00;15.90;99.90
1880;DHT22;49285;49.002;8.390;2022-10-26T04:58:26;15.90;99.90
1880;DHT22;49285;49.002;8.390;2022-10-26T05:00:52;15.90;99.90
1880;DHT22;49285;49.002;8.390;2022-10-26T05:03:18;16.00;99.90
1880;DHT22;49285;49.002;8.390;2022-10-26T05:05:43;16.00;99.90
1880;DHT22;49285;49.002;8.390;2022-10-26T05:08:09;16.00;99.90
1880;DHT22;49285;49.002;8.390;2022-10-26T05:10:35;16.00;99.90
1880;DHT22;49285;49.002;8.390;2022-10-26T05:13:01;16.10;99.90
1880;DHT22;49285;49.002;8.390;2022-10-26T05:15:27;16.00;99.90
1880;DHT22;49285;49.002;8.390;2022-10-26T05:18:00;16.10;99.90
1880;DHT22;49285;49.002;8.390;2022-10-26T05:20:29;16.10;99.90
1880;DHT22;49285;49.002;8.390;2022-10-26T05:22:56;16.10;99.90
1880;DHT22;49285;49.002;8.390;2022-10-26T05:25:22;16.10;99.90
1880;DHT22;49285;49.002;8.390;2022-10-26T05:27:48;16.10;99.90
1880;DHT22;49285;49.002;8.390;2022-10-26T05:30:13;16.10;99.90
1880;DHT22;49285;49.002;8.390;2022-10-26T05:32:39;16.10;99.90
1880;DHT22;49285;49.002;8.390;2022-10-26T05:35:05;16.20;99.90
1880;DHT22;49285;49.002;8.390;2022-10-26T05:37:30;16.20;99.90
1880;DHT22;49285;49.002;8.390;2022-10-26T05:39:56;16.20;99.90
1880;DHT22;49285;49.002;8.390;2022-10-26T05:42:21;16.20;99.90
1880;DHT22;49285;49.002;8.390;2022-10-26T05:44:47;16.20;99.90
1880;DHT22;49285;49.002;8.390;2022-10-26T05:47:13;16.20;99.90
1880;DHT22;49285;49.002;8.390;2022-10-26T05:49:38;16.20;99.90
1880;DHT22;49285;49.002;8.390;2022-10-26T05:52:04;16.20;99.90
1880;DHT22;49285;49.002;8.390;2022-10-26T05:54:29;16.20;99.90
1880;DHT22;49285;49.002;8.390;2022-10-26T05:56:55;16.20;99.90
1880;DHT22;49285;49.002;8.390;2022-10-26T05:59:21;16.20;99.90
1880;DHT22;49285;49.002;8.390;2022-10-26T06:02:03;16.20;99.90
1880;DHT22;49285;49.002;8.390;2022-10-26T06:04:35;16.20;99.90
1880;DHT22;49285;49.002;8.390;2022-10-26T06:07:06;16.10;99.90
1880;DHT22;49285;49.002;8.390;2022-10-26T06:09:34;16.20;99.90
1880;DHT22;49285;49.002;8.390;2022-10-26T06:11:59;16.20;99.90
1880;DHT22;49285;49.002;8.390;2022-10-26T06:14:26;16.20;99.90
1880;DHT22;49285;49.002;8.390;2022-10-26T06:17:20;16.20;99.90
1880;DHT22;49285;49.002;8.390;2022-10-26T06:20:03;16.10;99.90
1880;DHT22;49285;49.002;8.390;2022-10-26T06:30:20;16.20;99.90
1880;DHT22;49285;49.002;8.390;2022-10-26T06:32:48;16.20;99.90
1880;DHT22;49285;49.002;8.390;2022-10-26T06:37:42;16.20;99.90
1880;DHT22;49285;49.002;8.390;2022-10-26T06:40:10;16.10;99.90
1880;DHT22;49285;49.002;8.390;2022-10-26T06:42:40;16.00;99.90
1880;DHT22;49285;49.002;8.390;2022-10-26T06:45:10;16.10;99.90
1880;DHT22;49285;49.002;8.390;2022-10-26T06:47:48;16.10;99.90
1880;DHT22;49285;49.002;8.390;2022-10-26T06:55:54;16.20;99.90
1880;DHT22;49285;49.002;8.390;2022-10-26T06:58:24;16.20;99.90
1880;DHT22;49285;49.002;8.390;2022-10-26T07:00:53;16.20;99.90
1880;DHT22;49285;49.002;8.390;2022-10-26T07:03:19;16.30;99.90
1880;DHT22;49285;49.002;8.390;2022-10-26T07:05:45;16.30;99.90
1880;DHT22;49285;49.002;8.390;2022-10-26T07:08:13;16.40;99.90
1880;DHT22;49285;49.002;8.390;2022-10-26T07:10:39;16.40;99.90
1880;DHT22;49285;49.002;8.390;2022-10-26T07:13:05;16.50;99.90
1880;DHT22;49285;49.002;8.390;2022-10-26T07:15:31;16.50;99.90
1880;DHT22;49285;49.002;8.390;2022-10-26T07:17:57;16.50;99.90
1880;DHT22;49285;49.002;8.390;2022-10-26T07:20:23;16.60;99.90
1880;DHT22;49285;49.002;8.390;2022-10-26T07:22:52;16.50;99.90
1880;DHT22;49285;49.002;8.390;2022-10-26T07:25:19;16.60;99.90
1880;DHT22;49285;49.002;8.390;2022-10-26T07:27:44;16.60;99.90
1880;DHT22;49285;49.002;8.390;2022-10-26T07:30:10;16.60;99.90
1880;DHT22;49285;49.002;8.390;2022-10-26T07:32:36;16.60;99.90
1880;DHT22;49285;49.002;8.390;2022-10-26T07:35:01;16.60;99.90
1880;DHT22;49285;49.002;8.390;2022-10-26T07:37:27;16.60;99.90
1880;DHT22;49285;49.002;8.390;2022-10-26T07:39:53;16.50;99.90
1880;DHT22;49285;49.002;8.390;2022-10-26T07:42:18;16.60;99.90
1880;DHT22;49285;49.002;8.390;2022-10-26T07:44:44;16.70;99.90
1880;DHT22;49285;49.002;8.390;2022-10-26T07:47:09;16.70;99.90
1880;DHT22;49285;49.002;8.390;2022-10-26T07:49:35;16.80;99.90
1880;DHT22;49285;49.002;8.390;2022-10-26T07:52:00;16.80;99.90
1880;DHT22;49285;49.002;8.390;2022-10-26T07:54:26;16.80;99.90
1880;DHT22;49285;49.002;8.390;2022-10-26T07:56:51;16.90;99.90
1880;DHT22;49285;49.002;8.390;2022-10-26T07:59:17;16.90;99.90
1880;DHT22;49285;49.002;8.390;2022-10-26T08:01:43;16.90;99.90
1880;DHT22;49285;49.002;8.390;2022-10-26T08:04:09;16.90;99.90
1880;DHT22;49285;49.002;8.390;2022-10-26T08:06:38;17.00;99.90
1880;DHT22;49285;49.002;8.390;2022-10-26T08:09:03;17.00;99.90
1880;DHT22;49285;49.002;8.390;2022-10-26T08:11:29;17.00;99.90
1880;DHT22;49285;49.002;8.390;2022-10-26T08:13:54;17.10;99.90
1880;DHT22;49285;49.002;8.390;2022-10-26T08:16:20;17.00;99.90
1880;DHT22;49285;49.002;8.390;2022-10-26T08:18:50;17.10;99.90
1880;DHT22;49285;49.002;8.390;2022-10-26T08:21:16;17.10;99.90
1880;DHT22;49285;49.002;8.390;2022-10-26T08:23:42;17.10;99.90
1880;DHT22;49285;49.002;8.390;2022-10-26T08:26:08;17.30;99.90
1880;DHT22;49285;49.002;8.390;2022-10-26T08:28:41;17.30;99.90
1880;DHT22;49285;49.002;8.390;2022-10-26T08:31:06;17.40;99.90
1880;DHT22;49285;49.002;8.390;2022-10-26T08:33:32;17.40;99.90
1880;DHT22;49285;49.002;8.390;2022-10-26T08:36:03;17.50;99.90
1880;DHT22;49285;49.002;8.390;2022-10-26T08:38:31;17.50;99.90
1880;DHT22;49285;49.002;8.390;2022-10-26T08:40:58;17.40;99.90
1880;DHT22;49285;49.002;8.390;2022-10-26T08:43:30;17.40;99.90
1880;DHT22;49285;49.002;8.390;2022-10-26T08:48:36;17.30;99.90
1880;DHT22;49285;49.002;8.390;2022-10-26T08:51:10;17.30;99.90
1880;DHT22;49285;49.002;8.390;2022-10-26T08:53:42;17.40;99.90
1880;DHT22;49285;49.002;8.390;2022-10-26T08:56:17;17.40;99.90
1880;DHT22;49285;49.002;8.390;2022-10-26T08:59:00;17.30;99.90
1880;DHT22;49285;49.002;8.390;2022-10-26T09:01:30;17.30;99.90
1880;DHT22;49285;49.002;8.390;2022-10-26T09:04:02;17.30;99.90
1880;DHT22;49285;49.002;8.390;2022-10-26T09:06:39;17.30;99.90
1880;DHT22;49285;49.002;8.390;2022-10-26T09:09:42;17.40;99.90
1880;DHT22;49285;49.002;8.390;2022-10-26T09:25:39;17.70;99.90
1880;DHT22;49285;49.002;8.390;2022-10-26T09:28:16;17.90;99.90
1880;DHT22;49285;49.002;8.390;2022-10-26T09:30:46;17.90;99.90
1880;DHT22;49285;49.002;8.390;2022-10-26T09:33:19;17.90;99.90
1880;DHT22;49285;49.002;8.390;2022-10-26T09:41:19;18.20;99.90
1880;DHT22;49285;49.002;8.390;2022-10-26T09:43:52;18.20;99.90
1880;DHT22;49285;49.002;8.390;2022-10-26T09:46:28;18.30;99.90
1880;DHT22;49285;49.002;8.390;2022-10-26T09:49:02;18.40;99.90
1880;DHT22;49285;49.002;8.390;2022-10-26T09:51:32;18.50;99.90
1880;DHT22;49285;49.002;8.390;2022-10-26T09:54:08;18.60;99.90
1880;DHT22;49285;49.002;8.390;2022-10-26T09:56:38;18.70;99.90
1880;DHT22;49285;49.002;8.390;2022-10-26T09:59:05;18.80;99.90
1880;DHT22;49285;49.002;8.390;2022-10-26T10:01:32;18.90;99.90
1880;DHT22;49285;49.002;8.390;2022-10-26T10:06:43;19.40;99.90
1880;DHT22;49285;49.002;8.390;2022-10-26T10:09:11;19.40;99.90
1880;DHT22;49285;49.002;8.390;2022-10-26T10:11:49;19.50;99.90
1880;DHT22;49285;49.002;8.390;2022-10-26T10:17:18;19.60;99.90
1880;DHT22;49285;49.002;8.390;2022-10-26T10:19:45;19.50;99.90
1880;DHT22;49285;49.002;8.390;2022-10-26T10:22:18;19.50;99.90
1880;DHT22;49285;49.002;8.390;2022-10-26T10:24:56;19.60;99.90
1880;DHT22;49285;49.002;8.390;2022-10-26T10:27:23;19.60;99.90
1880;DHT22;49285;49.002;8.390;2022-10-26T10:29:51;19.70;99.90
1880;DHT22;49285;49.002;8.390;2022-10-26T10:32:25;19.70;99.90
1880;DHT22;49285;49.002;8.390;2022-10-26T10:34:59;19.70;99.90
1880;DHT22;49285;49.002;8.390;2022-10-26T10:37:28;19.80;99.90
1880;DHT22;49285;49.002;8.390;2022-10-26T10:40:00;19.80;99.90
1880;DHT22;49285;49.002;8.390;2022-10-26T10:42:30;19.80;99.90
1880;DHT22;49285;49.002;8.390;2022-10-26T10:44:57;19.90;99.90
1880;DHT22;49285;49.002;8.390;2022-10-26T10:47:26;19.90;99.90
1880;DHT22;49285;49.002;8.390;2022-10-26T10:50:07;20.10;99.90
1880;DHT22;49285;49.002;8.390;2022-10-26T10:52:40;20.10;99.90
1880;DHT22;49285;49.002;8.390;2022-10-26T11:00:22;20.40;99.90
1880;DHT22;49285;49.002;8.390;2022-10-26T11:03:03;20.50;99.90
1880;DHT22;49285;49.002;8.390;2022-10-26T11:05:51;20.60;99.90
1880;DHT22;49285;49.002;8.390;2022-10-26T11:11:22;20.80;99.90
1880;DHT22;49285;49.002;8.390;2022-10-26T11:14:14;20.80;99.90
1880;DHT22;49285;49.002;8.390;2022-10-26T11:16:48;20.90;99.90
1880;DHT22;49285;49.002;8.390;2022-10-26T11:19:19;20.90;99.90
1880;DHT22;49285;49.002;8.390;2022-10-26T11:21:49;21.00;99.90
1880;DHT22;49285;49.002;8.390;2022-10-26T11:30:18;21.10;99.90
1880;DHT22;49285;49.002;8.390;2022-10-26T11:32:54;21.20;99.90
1880;DHT22;49285;49.002;8.390;2022-10-26T11:35:36;21.20;99.90
1880;DHT22;49285;49.002;8.390;2022-10-26T11:38:51;21.30;99.90
1880;DHT22;49285;49.002;8.390;2022-10-26T11:41:48;21.30;99.90
1880;DHT22;49285;49.002;8.390;2022-10-26T11:46:51;21.80;99.90
1880;DHT22;49285;49.002;8.390;2022-10-26T11:49:37;21.80;99.90
1880;DHT22;49285;49.002;8.390;2022-10-26T11:55:04;22.30;99.90
1880;DHT22;49285;49.002;8.390;2022-10-26T11:57:34;22.40;99.90
1880;DHT22;49285;49.002;8.390;2022-10-26T12:00:04;22.40;99.90
1880;DHT22;49285;49.002;8.390;2022-10-26T12:02:39;22.70;99.90
1880;DHT22;49285;49.002;8.390;2022-10-26T12:07:37;24.00;99.90
1880;DHT22;49285;49.002;8.390;2022-10-26T12:10:06;24.50;99.90
1880;DHT22;49285;49.002;8.390;2022-10-26T12:12:40;24.50;99.90
1880;DHT22;49285;49.002;8.390;2022-10-26T12:18:10;24.40;99.90
1880;DHT22;49285;49.002;8.390;2022-10-26T12:23:31;24.30;99.90
1880;DHT22;49285;49.002;8.390;2022-10-26T12:32:02;24.50;99.90
1880;DHT22;49285;49.002;8.390;2022-10-26T12:39:33;24.50;99.90
1880;DHT22;49285;49.002;8.390;2022-10-26T12:47:05;24.60;99.90
1880;DHT22;49285;49.002;8.390;2022-10-26T12:52:57;24.60;99.90
1880;DHT22;49285;49.002;8.390;2022-10-26T13:03:38;25.10;99.90
1880;DHT22;49285;49.002;8.390;2022-10-26T13:06:22;25.20;99.90
1880;DHT22;49285;49.002;8.390;2022-10-26T13:08:56;25.20;99.90
1880;DHT22;49285;49.002;8.390;2022-10-26T13:11:34;25.20;99.90
1880;DHT22;49285;49.002;8.390;2022-10-26T13:14:05;25.30;99.90
1880;DHT22;49285;49.002;8.390;2022-10-26T13:16:33;25.50;99.90
1880;DHT22;49285;49.002;8.390;2022-10-26T13:18:59;25.70;99.90
1880;DHT22;49285;49.002;8.390;2022-10-26T13:21:26;26.00;99.90
1880;DHT22;49285;49.002;8.390;2022-10-26T13:26:26;26.40;99.90
1880;DHT22;49285;49.002;8.390;2022-10-26T13:28:54;26.70;99.90
1880;DHT22;49285;49.002;8.390;2022-10-26T13:37:00;27.70;99.90
1880;DHT22;49285;49.002;8.390;2022-10-26T13:41:59;28.00;99.90
1880;DHT22;49285;49.002;8.390;2022-10-26T13:44:35;27.80;99.90
1880;DHT22;49285;49.002;8.390;2022-10-26T13:47:05;27.30;99.90
1880;DHT22;49285;49.002;8.390;2022-10-26T13:49:39;27.20;99.90
1880;DHT22;49285;49.002;8.390;2022-10-26T13:52:13;26.80;99.90
1880;DHT22;49285;49.002;8.390;2022-10-26T13:57:36;26.10;99.90
1880;DHT22;49285;49.002;8.390;2022-10-26T14:00:20;25.80;99.90
1880;DHT22;49285;49.002;8.390;2022-10-26T14:02:46;25.60;99.90
1880;DHT22;49285;49.002;8.390;2022-10-26T14:05:17;25.40;99.90
1880;DHT22;49285;49.002;8.390;2022-10-26T14:12:54;25.10;99.90
1880;DHT22;49285;49.002;8.390;2022-10-26T14:15:24;25.00;99.90
1880;DHT22;49285;49.002;8.390;2022-10-26T14:17:51;24.90;99.90
1880;DHT22;49285;49.002;8.390;2022-10-26T14:20:20;24.90;99.90
1880;DHT22;49285;49.002;8.390;2022-10-26T14:22:46;24.50;99.90
1880;DHT22;49285;49.002;8.390;2022-10-26T14:25:21;24.30;99.90
1880;DHT22;49285;49.002;8.390;2022-10-26T14:27:47;24.10;99.90
1880;DHT22;49285;49.002;8.390;2022-10-26T14:30:27;24.00;99.90
1880;DHT22;49285;49.002;8.390;2022-10-26T14:32:53;24.00;99.90
1880;DHT22;49285;49.002;8.390;2022-10-26T14:35:22;23.90;99.90
1880;DHT22;49285;49.002;8.390;2022-10-26T14:37:59;23.90;99.90
1880;DHT22;49285;49.002;8.390;2022-10-26T14:40:29;23.70;99.90
1880;DHT22;49285;49.002;8.390;2022-10-26T14:42:57;23.70;99.90
1880;DHT22;49285;49.002;8.390;2022-10-26T14:45:36;23.70;99.90
1880;DHT22;49285;49.002;8.390;2022-10-26T14:48:05;23.60;99.90
1880;DHT22;49285;49.002;8.390;2022-10-26T14:50:32;23.50;99.90
1880;DHT22;49285;49.002;8.390;2022-10-26T14:53:14;23.50;99.90
1880;DHT22;49285;49.002;8.390;2022-10-26T14:55:51;23.50;99.90
1880;DHT22;49285;49.002;8.390;2022-10-26T14:58:31;23.50;99.90
1880;DHT22;49285;49.002;8.390;2022-10-26T15:01:27;23.40;99.90
1880;DHT22;49285;49.002;8.390;2022-10-26T15:04:01;23.40;99.90
1880;DHT22;49285;49.002;8.390;2022-10-26T15:09:00;23.40;99.90
1880;DHT22;49285;49.002;8.390;2022-10-26T15:11:27;23.30;99.90
1880;DHT22;49285;49.002;8.390;2022-10-26T15:13:54;23.30;99.90
1880;DHT22;49285;49.002;8.390;2022-10-26T15:16:25;23.30;99.90
1880;DHT22;49285;49.002;8.390;2022-10-26T15:18:55;23.20;99.90
1880;DHT22;49285;49.002;8.390;2022-10-26T15:21:25;23.20;99.90
1880;DHT22;49285;49.002;8.390;2022-10-26T15:23:53;23.30;99.90
1880;DHT22;49285;49.002;8.390;2022-10-26T15:26:20;23.20;99.90
1880;DHT22;49285;49.002;8.390;2022-10-26T15:28:45;23.20;99.90
1880;DHT22;49285;49.002;8.390;2022-10-26T15:33:42;23.10;99.90
1880;DHT22;49285;49.002;8.390;2022-10-26T15:36:28;23.10;99.90
1880;DHT22;49285;49.002;8.390;2022-10-26T15:38:53;23.10;99.90
1880;DHT22;49285;49.002;8.390;2022-10-26T15:41:30;23.00;99.90
1880;DHT22;49285;49.002;8.390;2022-10-26T15:43:58;23.00;99.90
1880;DHT22;49285;49.002;8.390;2022-10-26T15:46:29;22.90;99.90
1880;DHT22;49285;49.002;8.390;2022-10-26T15:48:57;22.90;99.90
1880;DHT22;49285;49.002;8.390;2022-10-26T15:51:24;22.90;99.90
1880;DHT22;49285;49.002;8.390;2022-10-26T15:53:49;22.90;99.90
1880;DHT22;49285;49.002;8.390;2022-10-26T15:56:20;22.90;99.90
1880;DHT22;49285;49.002;8.390;2022-10-26T15:58:48;22.80;99.90
1880;DHT22;49285;49.002;8.390;2022-10-26T16:01:19;22.70;99.90
1880;DHT22;49285;49.002;8.390;2022-10-26T16:03:45;22.70;99.90
1880;DHT22;49285;49.002;8.390;2022-10-26T16:06:17;22.60;99.90
1880;DHT22;49285;49.002;8.390;2022-10-26T16:08:55;22.60;99.90
1880;DHT22;49285;49.002;8.390;2022-10-26T16:11:21;22.60;99.90
1880;DHT22;49285;49.002;8.390;2022-10-26T16:13:47;22.50;99.90
1880;DHT22;49285;49.002;8.390;2022-10-26T16:16:15;22.50;99.90
1880;DHT22;49285;49.002;8.390;2022-10-26T16:18:42;22.40;99.90
1880;DHT22;49285;49.002;8.390;2022-10-26T16:21:12;22.40;99.90
1880;DHT22;49285;49.002;8.390;2022-10-26T16:23:38;22.30;99.90
1880;DHT22;49285;49.002;8.390;2022-10-26T16:26:04;22.30;99.90
1880;DHT22;49285;49.002;8.390;2022-10-26T16:28:30;22.20;99.90
1880;DHT22;49285;49.002;8.390;2022-10-26T16:31:04;22.10;99.90
1880;DHT22;49285;49.002;8.390;2022-10-26T16:33:30;22.10;99.90
1880;DHT22;49285;49.002;8.390;2022-10-26T16:35:56;22.00;99.90
1880;DHT22;49285;49.002;8.390;2022-10-26T16:38:22;21.90;99.90
1880;DHT22;49285;49.002;8.390;2022-10-26T16:40:48;21.80;99.90
1880;DHT22;49285;49.002;8.390;2022-10-26T16:43:14;21.80;99.90
1880;DHT22;49285;49.002;8.390;2022-10-26T16:45:40;21.70;99.90
1880;DHT22;49285;49.002;8.390;2022-10-26T16:48:08;21.60;99.90
1880;DHT22;49285;49.002;8.390;2022-10-26T16:50:39;21.60;99.90
1880;DHT22;49285;49.002;8.390;2022-10-26T16:53:04;21.50;99.90
1880;DHT22;49285;49.002;8.390;2022-10-26T16:55:30;21.50;99.90
1880;DHT22;49285;49.002;8.390;2022-10-26T16:57:56;21.40;99.90
1880;DHT22;49285;49.002;8.390;2022-10-26T17:00:21;21.40;99.90
1880;DHT22;49285;49.002;8.390;2022-10-26T17:02:47;21.30;99.90
1880;DHT22;49285;49.002;8.390;2022-10-26T17:05:12;21.30;99.90
1880;DHT22;49285;49.002;8.390;2022-10-26T17:07:38;21.20;99.90
1880;DHT22;49285;49.002;8.390;2022-10-26T17:10:04;21.20;99.90
1880;DHT22;49285;49.002;8.390;2022-10-26T17:12:30;21.10;99.90
1880;DHT22;49285;49.002;8.390;2022-10-26T17:14:56;21.10;99.90
1880;DHT22;49285;49.002;8.390;2022-10-26T17:17:23;21.00;99.90
1880;DHT22;49285;49.002;8.390;2022-10-26T17:19:49;21.00;99.90
1880;DHT22;49285;49.002;8.390;2022-10-26T17:22:14;20.90;99.90
1880;DHT22;49285;49.002;8.390;2022-10-26T17:24:40;20.90;99.90
1880;DHT22;49285;49.002;8.390;2022-10-26T17:27:06;20.80;99.90
1880;DHT22;49285;49.002;8.390;2022-10-26T17:29:32;20.80;99.90
1880;DHT22;49285;49.002;8.390;2022-10-26T17:31:57;20.80;99.90
1880;DHT22;49285;49.002;8.390;2022-10-26T17:34:23;20.70;99.90
1880;DHT22;49285;49.002;8.390;2022-10-26T17:36:49;20.70;99.90
1880;DHT22;49285;49.002;8.390;2022-10-26T17:39:14;20.60;99.90
1880;DHT22;49285;49.002;8.390;2022-10-26T17:41:40;20.60;99.90
1880;DHT22;49285;49.002;8.390;2022-10-26T17:44:06;20.50;99.90
1880;DHT22;49285;49.002;8.390;2022-10-26T17:46:32;20.50;99.90
1880;DHT22;49285;49.002;8.390;2022-10-26T17:48:59;20.50;99.90
1880;DHT22;49285;49.002;8.390;2022-10-26T17:51:26;20.40;99.90
1880;DHT22;49285;49.002;8.390;2022-10-26T17:53:52;20.40;99.90
1880;DHT22;49285;49.002;8.390;2022-10-26T17:56:23;20.40;99.90
1880;DHT22;49285;49.002;8.390;2022-10-26T17:59:04;20.30;99.90
1880;DHT22;49285;49.002;8.390;2022-10-26T18:01:30;20.30;99.90
1880;DHT22;49285;49.002;8.390;2022-10-26T18:03:56;20.20;99.90
1880;DHT22;49285;49.002;8.390;2022-10-26T18:06:21;20.20;99.90
1880;DHT22;49285;49.002;8.390;2022-10-26T18:08:47;20.20;99.90
1880;DHT22;49285;49.002;8.390;2022-10-26T18:11:18;20.10;99.90
1880;DHT22;49285;49.002;8.390;2022-10-26T18:13:45;20.10;99.90
1880;DHT22;49285;49.002;8.390;2022-10-26T18:16:12;20.10;99.90
1880;DHT22;49285;49.002;8.390;2022-10-26T18:18:39;20.00;99.90
1880;DHT22;49285;49.002;8.390;2022-10-26T18:21:08;20.00;99.90
1880;DHT22;49285;49.002;8.390;2022-10-26T18:23:35;19.90;99.90
1880;DHT22;49285;49.002;8.390;2022-10-26T18:26:05;19.90;99.90
1880;DHT22;49285;49.002;8.390;2022-10-26T18:28:32;19.90;99.90